Crane Gaia — 3FXX2 — position and weather

sailwx.info

Track history (hours):
 
Tides and Currents Weather Stations Pressure Air Temp Water Temp Dewpoint Dewpoint Depression Visibility Wind Speed Wind Dir Waves Ship Positions

Crane Gaia

Last reported at 2015-Feb-13 22:22 UTC. Time now 2015-Mar-01 20:58 UTC.
Position N 22°31' E 119°28'.
Warning: this ship's position is 15 days out of date.

Length 115 m; draft 5.3 m.

Type: Tanker. MMSI: 352461000.

Date/timePositionNaut miles runAvg speedWind from/ knotsBaromVisibWave heightAir tempDewpointWater temp
2015-Feb-13 22:22N 22°31' E 119°28'1113.6
2015-Feb-13 21:33N 22°40' E 119°35'1413.9
2015-Feb-13 20:32N 22°52' E 119°44'1313.0
2015-Feb-13 19:34N 23°02' E 119°52'3712.2
2015-Feb-13 16:32N 23°39' E 119°55'1513.7
2015-Feb-13 15:27N 23°47' E 120°09'  
2015-Feb-05 06:33N 34°52' E 139°46'1212.6
2015-Feb-05 05:34N 35°04' E 139°44'1313.1
2015-Feb-05 04:33N 35°17' E 139°45'7 6.5
2015-Feb-05 03:31N 35°23' E 139°41'0 0.0
2015-Feb-05 02:31N 35°23' E 139°41'0 0.0
2015-Feb-05 01:31N 35°23' E 139°41'0 0.0
2015-Feb-05 00:31N 35°23' E 139°41'6 6.1
2015-Feb-04 23:33N 35°18' E 139°45'1212.4
2015-Feb-04 22:33N 35°05' E 139°45'1312.6
2015-Feb-04 21:33N 34°58' E 139°33'23312.1
2015-Feb-04 02:21N 33°56' E 135°01'1114.5
2015-Feb-04 01:33N 34°08' E 135°01'1312.6
2015-Feb-04 00:33N 34°20' E 134°60'1313.1
2015-Feb-03 23:33N 34°33' E 135°04'7 6.7
2015-Feb-03 22:30N 34°36' E 134°56'  
Track history (hours):
 
Tides and Currents Weather Stations Pressure Air Temp Water Temp Dewpoint Dewpoint Depression Visibility Wind Speed Wind Dir Waves Ship Positions

Crane Gaia

Last reported at 2015-Feb-13 22:22 UTC. Time now 2015-Mar-01 20:58 UTC.
Position N 22°31' E 119°28'.
Warning: this ship's position is 15 days out of date.

Length 115 m; draft 5.3 m.

Type: Tanker. MMSI: 352461000.

Date/timePositionNaut miles runAvg speedWind from/ knotsBaromVisibWave heightAir tempDewpointWater temp
2015-Feb-13 22:22N 22°31' E 119°28'1113.6
2015-Feb-13 21:33N 22°40' E 119°35'1413.9
2015-Feb-13 20:32N 22°52' E 119°44'1313.0
2015-Feb-13 19:34N 23°02' E 119°52'3712.2
2015-Feb-13 16:32N 23°39' E 119°55'1513.7
2015-Feb-13 15:27N 23°47' E 120°09'  
2015-Feb-05 06:33N 34°52' E 139°46'1212.6
2015-Feb-05 05:34N 35°04' E 139°44'1313.1
2015-Feb-05 04:33N 35°17' E 139°45'7 6.5
2015-Feb-05 03:31N 35°23' E 139°41'0 0.0
2015-Feb-05 02:31N 35°23' E 139°41'0 0.0
2015-Feb-05 01:31N 35°23' E 139°41'0 0.0
2015-Feb-05 00:31N 35°23' E 139°41'6 6.1
2015-Feb-04 23:33N 35°18' E 139°45'1212.4
2015-Feb-04 22:33N 35°05' E 139°45'1312.6
2015-Feb-04 21:33N 34°58' E 139°33'23312.1
2015-Feb-04 02:21N 33°56' E 135°01'1114.5
2015-Feb-04 01:33N 34°08' E 135°01'1312.6
2015-Feb-04 00:33N 34°20' E 134°60'1313.1
2015-Feb-03 23:33N 34°33' E 135°04'7 6.7
2015-Feb-03 22:30N 34°36' E 134°56'  

Dump ship's entire track history